sensor_id;sensor_type;location;lat;lon;timestamp;temperature;humidity
5786;DHT22;2919;48.630;9.000;2023-08-20T00:01:25;20.40;99.90
5786;DHT22;2919;48.630;9.000;2023-08-20T00:03:51;20.30;99.90
5786;DHT22;2919;48.630;9.000;2023-08-20T00:06:18;20.30;99.90
5786;DHT22;2919;48.630;9.000;2023-08-20T00:08:44;20.30;99.90
5786;DHT22;2919;48.630;9.000;2023-08-20T00:11:11;20.30;99.90
5786;DHT22;2919;48.630;9.000;2023-08-20T00:13:38;20.30;99.90
5786;DHT22;2919;48.630;9.000;2023-08-20T00:16:04;20.20;99.90
5786;DHT22;2919;48.630;9.000;2023-08-20T00:18:30;20.30;99.90
5786;DHT22;2919;48.630;9.000;2023-08-20T00:20:56;20.30;99.90
5786;DHT22;2919;48.630;9.000;2023-08-20T00:23:22;20.30;99.90
5786;DHT22;2919;48.630;9.000;2023-08-20T00:25:48;20.30;99.90
5786;DHT22;2919;48.630;9.000;2023-08-20T00:28:14;20.20;99.90
5786;DHT22;2919;48.630;9.000;2023-08-20T00:30:39;20.30;99.90
5786;DHT22;2919;48.630;9.000;2023-08-20T00:33:05;20.20;99.90
5786;DHT22;2919;48.630;9.000;2023-08-20T00:35:31;20.20;99.90
5786;DHT22;2919;48.630;9.000;2023-08-20T00:37:57;20.20;99.90
5786;DHT22;2919;48.630;9.000;2023-08-20T00:40:22;20.20;99.90
5786;DHT22;2919;48.630;9.000;2023-08-20T00:42:48;20.20;99.90
5786;DHT22;2919;48.630;9.000;2023-08-20T00:45:15;20.10;99.90
5786;DHT22;2919;48.630;9.000;2023-08-20T00:47:42;20.10;99.90
5786;DHT22;2919;48.630;9.000;2023-08-20T00:50:08;20.10;99.90
5786;DHT22;2919;48.630;9.000;2023-08-20T00:52:34;20.00;99.90
5786;DHT22;2919;48.630;9.000;2023-08-20T00:55:07;20.00;99.90
5786;DHT22;2919;48.630;9.000;2023-08-20T00:57:34;20.00;99.90
5786;DHT22;2919;48.630;9.000;2023-08-20T01:00:00;20.00;99.90
5786;DHT22;2919;48.630;9.000;2023-08-20T01:02:26;19.90;99.90
5786;DHT22;2919;48.630;9.000;2023-08-20T01:04:52;19.90;99.90
5786;DHT22;2919;48.630;9.000;2023-08-20T01:07:30;19.90;99.90
5786;DHT22;2919;48.630;9.000;2023-08-20T01:12:31;19.80;99.90
5786;DHT22;2919;48.630;9.000;2023-08-20T01:14:59;19.80;99.90
5786;DHT22;2919;48.630;9.000;2023-08-20T01:17:25;19.80;99.90
5786;DHT22;2919;48.630;9.000;2023-08-20T01:19:50;19.80;99.90
5786;DHT22;2919;48.630;9.000;2023-08-20T01:25:28;19.80;99.90
5786;DHT22;2919;48.630;9.000;2023-08-20T01:30:25;19.80;99.90
5786;DHT22;2919;48.630;9.000;2023-08-20T01:32:52;19.80;99.90
5786;DHT22;2919;48.630;9.000;2023-08-20T01:35:18;19.80;99.90
5786;DHT22;2919;48.630;9.000;2023-08-20T01:37:44;19.80;99.90
5786;DHT22;2919;48.630;9.000;2023-08-20T01:40:10;19.80;99.90
5786;DHT22;2919;48.630;9.000;2023-08-20T01:42:40;19.70;99.90
5786;DHT22;2919;48.630;9.000;2023-08-20T01:45:06;19.70;99.90
5786;DHT22;2919;48.630;9.000;2023-08-20T01:47:35;19.70;99.90
5786;DHT22;2919;48.630;9.000;2023-08-20T01:50:02;19.60;99.90
5786;DHT22;2919;48.630;9.000;2023-08-20T01:52:28;19.70;99.90
5786;DHT22;2919;48.630;9.000;2023-08-20T01:54:54;19.60;99.90
5786;DHT22;2919;48.630;9.000;2023-08-20T01:57:20;19.60;99.90
5786;DHT22;2919;48.630;9.000;2023-08-20T01:59:47;19.60;99.90
5786;DHT22;2919;48.630;9.000;2023-08-20T02:02:13;19.60;99.90
5786;DHT22;2919;48.630;9.000;2023-08-20T02:04:39;19.60;99.90
5786;DHT22;2919;48.630;9.000;2023-08-20T02:07:04;19.50;99.90
5786;DHT22;2919;48.630;9.000;2023-08-20T02:09:30;19.50;99.90
5786;DHT22;2919;48.630;9.000;2023-08-20T02:11:55;19.50;99.90
5786;DHT22;2919;48.630;9.000;2023-08-20T02:14:21;19.60;99.90
5786;DHT22;2919;48.630;9.000;2023-08-20T02:16:48;19.50;99.90
5786;DHT22;2919;48.630;9.000;2023-08-20T02:19:13;19.50;99.90
5786;DHT22;2919;48.630;9.000;2023-08-20T02:21:40;19.50;99.90
5786;DHT22;2919;48.630;9.000;2023-08-20T02:24:06;19.50;99.90
5786;DHT22;2919;48.630;9.000;2023-08-20T02:26:32;19.50;99.90
5786;DHT22;2919;48.630;9.000;2023-08-20T02:28:58;19.50;99.90
5786;DHT22;2919;48.630;9.000;2023-08-20T02:31:23;19.50;99.90
5786;DHT22;2919;48.630;9.000;2023-08-20T02:33:49;19.40;99.90
5786;DHT22;2919;48.630;9.000;2023-08-20T02:36:15;19.40;99.90
5786;DHT22;2919;48.630;9.000;2023-08-20T02:38:40;19.40;99.90
5786;DHT22;2919;48.630;9.000;2023-08-20T02:41:06;19.40;99.90
5786;DHT22;2919;48.630;9.000;2023-08-20T02:43:32;19.30;99.90
5786;DHT22;2919;48.630;9.000;2023-08-20T02:45:57;19.30;99.90
5786;DHT22;2919;48.630;9.000;2023-08-20T02:48:23;19.30;99.90
5786;DHT22;2919;48.630;9.000;2023-08-20T02:50:55;19.20;99.90
5786;DHT22;2919;48.630;9.000;2023-08-20T02:53:21;19.20;99.90
5786;DHT22;2919;48.630;9.000;2023-08-20T02:55:47;19.20;99.90
5786;DHT22;2919;48.630;9.000;2023-08-20T02:58:12;19.20;99.90
5786;DHT22;2919;48.630;9.000;2023-08-20T03:00:38;19.20;99.90
5786;DHT22;2919;48.630;9.000;2023-08-20T03:03:04;19.20;99.90
5786;DHT22;2919;48.630;9.000;2023-08-20T03:05:34;19.20;99.90
5786;DHT22;2919;48.630;9.000;2023-08-20T03:08:00;19.20;99.90
5786;DHT22;2919;48.630;9.000;2023-08-20T03:10:27;19.10;99.90
5786;DHT22;2919;48.630;9.000;2023-08-20T03:12:53;19.10;99.90
5786;DHT22;2919;48.630;9.000;2023-08-20T03:15:18;19.10;99.90
5786;DHT22;2919;48.630;9.000;2023-08-20T03:17:44;19.10;99.90
5786;DHT22;2919;48.630;9.000;2023-08-20T03:20:10;19.10;99.90
5786;DHT22;2919;48.630;9.000;2023-08-20T03:22:37;19.10;99.90
5786;DHT22;2919;48.630;9.000;2023-08-20T03:25:04;19.10;99.90
5786;DHT22;2919;48.630;9.000;2023-08-20T03:27:30;19.10;99.90
5786;DHT22;2919;48.630;9.000;2023-08-20T03:29:56;19.00;99.90
5786;DHT22;2919;48.630;9.000;2023-08-20T03:32:22;19.00;99.90
5786;DHT22;2919;48.630;9.000;2023-08-20T03:34:47;19.00;99.90
5786;DHT22;2919;48.630;9.000;2023-08-20T03:37:13;18.90;99.90
5786;DHT22;2919;48.630;9.000;2023-08-20T03:39:38;18.90;99.90
5786;DHT22;2919;48.630;9.000;2023-08-20T03:42:04;18.90;99.90
5786;DHT22;2919;48.630;9.000;2023-08-20T03:44:30;18.90;99.90
5786;DHT22;2919;48.630;9.000;2023-08-20T03:46:56;19.00;99.90
5786;DHT22;2919;48.630;9.000;2023-08-20T03:49:22;19.00;99.90
5786;DHT22;2919;48.630;9.000;2023-08-20T03:51:47;19.00;99.90
5786;DHT22;2919;48.630;9.000;2023-08-20T03:54:13;18.90;99.90
5786;DHT22;2919;48.630;9.000;2023-08-20T03:56:39;18.90;99.90
5786;DHT22;2919;48.630;9.000;2023-08-20T03:59:04;18.90;99.90
5786;DHT22;2919;48.630;9.000;2023-08-20T04:01:30;18.90;99.90
5786;DHT22;2919;48.630;9.000;2023-08-20T04:03:56;18.90;99.90
5786;DHT22;2919;48.630;9.000;2023-08-20T04:06:22;18.80;99.90
5786;DHT22;2919;48.630;9.000;2023-08-20T04:08:48;18.90;99.90
5786;DHT22;2919;48.630;9.000;2023-08-20T04:11:14;18.90;99.90
5786;DHT22;2919;48.630;9.000;2023-08-20T04:13:39;18.80;99.90
5786;DHT22;2919;48.630;9.000;2023-08-20T04:16:08;18.80;99.90
5786;DHT22;2919;48.630;9.000;2023-08-20T04:18:33;18.80;99.90
5786;DHT22;2919;48.630;9.000;2023-08-20T04:20:59;18.80;99.90
5786;DHT22;2919;48.630;9.000;2023-08-20T04:23:25;18.80;99.90
5786;DHT22;2919;48.630;9.000;2023-08-20T04:25:50;18.70;99.90
5786;DHT22;2919;48.630;9.000;2023-08-20T04:28:16;18.70;99.90
5786;DHT22;2919;48.630;9.000;2023-08-20T04:30:41;18.70;99.90
5786;DHT22;2919;48.630;9.000;2023-08-20T04:33:07;18.80;99.90
5786;DHT22;2919;48.630;9.000;2023-08-20T04:35:33;18.80;99.90
5786;DHT22;2919;48.630;9.000;2023-08-20T04:37:59;18.80;99.90
5786;DHT22;2919;48.630;9.000;2023-08-20T04:40:24;18.80;99.90
5786;DHT22;2919;48.630;9.000;2023-08-20T04:42:51;18.70;99.90
5786;DHT22;2919;48.630;9.000;2023-08-20T04:45:17;18.70;99.90
5786;DHT22;2919;48.630;9.000;2023-08-20T04:47:47;18.70;99.90
5786;DHT22;2919;48.630;9.000;2023-08-20T04:50:13;18.80;99.90
5786;DHT22;2919;48.630;9.000;2023-08-20T04:52:39;18.80;99.90
5786;DHT22;2919;48.630;9.000;2023-08-20T04:55:05;18.80;99.90
5786;DHT22;2919;48.630;9.000;2023-08-20T04:57:32;18.80;99.90
5786;DHT22;2919;48.630;9.000;2023-08-20T04:59:58;18.80;99.90
5786;DHT22;2919;48.630;9.000;2023-08-20T05:02:23;18.80;99.90
5786;DHT22;2919;48.630;9.000;2023-08-20T05:04:49;18.80;99.90
5786;DHT22;2919;48.630;9.000;2023-08-20T05:07:15;18.80;99.90
5786;DHT22;2919;48.630;9.000;2023-08-20T05:09:41;18.80;99.90
5786;DHT22;2919;48.630;9.000;2023-08-20T05:12:07;18.80;99.90
5786;DHT22;2919;48.630;9.000;2023-08-20T05:14:33;18.90;99.90
5786;DHT22;2919;48.630;9.000;2023-08-20T05:16:58;18.90;99.90
5786;DHT22;2919;48.630;9.000;2023-08-20T05:19:24;18.90;99.90
5786;DHT22;2919;48.630;9.000;2023-08-20T05:21:49;19.00;99.90
5786;DHT22;2919;48.630;9.000;2023-08-20T05:24:15;19.10;99.90
5786;DHT22;2919;48.630;9.000;2023-08-20T05:26:41;19.10;99.90
5786;DHT22;2919;48.630;9.000;2023-08-20T05:29:06;19.20;99.90
5786;DHT22;2919;48.630;9.000;2023-08-20T05:31:32;19.30;99.90
5786;DHT22;2919;48.630;9.000;2023-08-20T05:33:57;19.30;99.90
5786;DHT22;2919;48.630;9.000;2023-08-20T05:36:23;19.40;99.90
5786;DHT22;2919;48.630;9.000;2023-08-20T05:38:49;19.40;99.90
5786;DHT22;2919;48.630;9.000;2023-08-20T05:41:15;19.40;99.90
5786;DHT22;2919;48.630;9.000;2023-08-20T05:43:40;19.50;99.90
5786;DHT22;2919;48.630;9.000;2023-08-20T05:46:06;19.50;99.90
5786;DHT22;2919;48.630;9.000;2023-08-20T05:48:32;19.60;99.90
5786;DHT22;2919;48.630;9.000;2023-08-20T05:50:57;19.70;99.90
5786;DHT22;2919;48.630;9.000;2023-08-20T05:53:23;19.70;99.90
5786;DHT22;2919;48.630;9.000;2023-08-20T05:55:49;19.80;99.90
5786;DHT22;2919;48.630;9.000;2023-08-20T05:58:14;19.80;99.90
5786;DHT22;2919;48.630;9.000;2023-08-20T06:00:40;19.90;99.90
5786;DHT22;2919;48.630;9.000;2023-08-20T06:03:06;20.00;99.90
5786;DHT22;2919;48.630;9.000;2023-08-20T06:05:34;20.10;99.90
5786;DHT22;2919;48.630;9.000;2023-08-20T06:08:00;20.20;99.90
5786;DHT22;2919;48.630;9.000;2023-08-20T06:10:26;20.30;99.90
5786;DHT22;2919;48.630;9.000;2023-08-20T06:12:52;20.50;99.90
5786;DHT22;2919;48.630;9.000;2023-08-20T06:15:17;20.60;99.90
5786;DHT22;2919;48.630;9.000;2023-08-20T06:17:43;20.70;99.90
5786;DHT22;2919;48.630;9.000;2023-08-20T06:20:09;20.90;99.90
5786;DHT22;2919;48.630;9.000;2023-08-20T06:22:37;21.10;99.90
5786;DHT22;2919;48.630;9.000;2023-08-20T06:25:04;21.40;99.90
5786;DHT22;2919;48.630;9.000;2023-08-20T06:27:29;21.50;99.90
5786;DHT22;2919;48.630;9.000;2023-08-20T06:29:55;21.50;99.90
5786;DHT22;2919;48.630;9.000;2023-08-20T06:32:21;21.60;99.90
5786;DHT22;2919;48.630;9.000;2023-08-20T06:34:46;21.80;99.90
5786;DHT22;2919;48.630;9.000;2023-08-20T06:37:12;21.90;99.90
5786;DHT22;2919;48.630;9.000;2023-08-20T06:39:38;22.10;99.90
5786;DHT22;2919;48.630;9.000;2023-08-20T06:42:03;22.20;99.90
5786;DHT22;2919;48.630;9.000;2023-08-20T06:44:29;22.50;99.90
5786;DHT22;2919;48.630;9.000;2023-08-20T06:46:55;22.70;99.90
5786;DHT22;2919;48.630;9.000;2023-08-20T06:49:20;22.80;99.90
5786;DHT22;2919;48.630;9.000;2023-08-20T06:51:46;23.00;99.90
5786;DHT22;2919;48.630;9.000;2023-08-20T06:54:11;23.10;99.90
5786;DHT22;2919;48.630;9.000;2023-08-20T06:56:37;23.40;99.90
5786;DHT22;2919;48.630;9.000;2023-08-20T06:59:03;23.50;99.90
5786;DHT22;2919;48.630;9.000;2023-08-20T07:01:29;23.60;99.90
5786;DHT22;2919;48.630;9.000;2023-08-20T07:03:54;23.70;99.90
5786;DHT22;2919;48.630;9.000;2023-08-20T07:06:20;23.90;99.90
5786;DHT22;2919;48.630;9.000;2023-08-20T07:08:46;24.20;99.90
5786;DHT22;2919;48.630;9.000;2023-08-20T07:11:11;24.50;99.90
5786;DHT22;2919;48.630;9.000;2023-08-20T07:13:37;24.50;99.90
5786;DHT22;2919;48.630;9.000;2023-08-20T07:16:03;24.50;99.90
5786;DHT22;2919;48.630;9.000;2023-08-20T07:18:29;25.00;99.90
5786;DHT22;2919;48.630;9.000;2023-08-20T07:20:55;25.40;99.90
5786;DHT22;2919;48.630;9.000;2023-08-20T07:23:21;25.90;99.90
5786;DHT22;2919;48.630;9.000;2023-08-20T07:25:47;25.80;99.90
5786;DHT22;2919;48.630;9.000;2023-08-20T07:28:14;25.90;99.90
5786;DHT22;2919;48.630;9.000;2023-08-20T07:30:40;26.30;99.90
5786;DHT22;2919;48.630;9.000;2023-08-20T07:33:06;26.40;99.90
5786;DHT22;2919;48.630;9.000;2023-08-20T07:35:32;27.30;99.90
5786;DHT22;2919;48.630;9.000;2023-08-20T07:37:57;28.00;99.90
5786;DHT22;2919;48.630;9.000;2023-08-20T07:40:23;29.00;99.90
5786;DHT22;2919;48.630;9.000;2023-08-20T07:42:49;29.60;99.90
5786;DHT22;2919;48.630;9.000;2023-08-20T07:45:16;29.60;99.90
5786;DHT22;2919;48.630;9.000;2023-08-20T07:47:41;29.20;99.90
5786;DHT22;2919;48.630;9.000;2023-08-20T07:50:07;29.00;99.90
5786;DHT22;2919;48.630;9.000;2023-08-20T07:52:33;29.10;99.90
5786;DHT22;2919;48.630;9.000;2023-08-20T07:54:58;29.40;99.90
5786;DHT22;2919;48.630;9.000;2023-08-20T07:57:24;29.90;99.90
5786;DHT22;2919;48.630;9.000;2023-08-20T07:59:50;30.20;99.90
5786;DHT22;2919;48.630;9.000;2023-08-20T08:02:16;30.50;99.60
5786;DHT22;2919;48.630;9.000;2023-08-20T08:04:42;30.60;99.30
5786;DHT22;2919;48.630;9.000;2023-08-20T08:07:08;30.30;99.60
5786;DHT22;2919;48.630;9.000;2023-08-20T08:09:34;29.90;99.90
5786;DHT22;2919;48.630;9.000;2023-08-20T08:12:00;30.00;99.80
5786;DHT22;2919;48.630;9.000;2023-08-20T08:14:26;30.10;99.90
5786;DHT22;2919;48.630;9.000;2023-08-20T08:16:52;30.40;99.70
5786;DHT22;2919;48.630;9.000;2023-08-20T08:19:18;30.70;99.50
5786;DHT22;2919;48.630;9.000;2023-08-20T08:21:45;30.60;99.20
5786;DHT22;2919;48.630;9.000;2023-08-20T08:24:11;31.10;98.80
5786;DHT22;2919;48.630;9.000;2023-08-20T08:26:37;31.30;97.70
5786;DHT22;2919;48.630;9.000;2023-08-20T08:29:04;31.80;96.70
5786;DHT22;2919;48.630;9.000;2023-08-20T08:31:30;32.20;96.50
5786;DHT22;2919;48.630;9.000;2023-08-20T08:33:55;32.40;96.30
5786;DHT22;2919;48.630;9.000;2023-08-20T08:36:21;32.40;95.70
5786;DHT22;2919;48.630;9.000;2023-08-20T08:38:47;32.20;95.70
5786;DHT22;2919;48.630;9.000;2023-08-20T08:41:13;32.20;95.70
5786;DHT22;2919;48.630;9.000;2023-08-20T08:43:40;32.20;95.80
5786;DHT22;2919;48.630;9.000;2023-08-20T08:46:07;32.70;95.00
5786;DHT22;2919;48.630;9.000;2023-08-20T08:48:34;33.00;94.10
5786;DHT22;2919;48.630;9.000;2023-08-20T08:51:01;33.20;93.80
5786;DHT22;2919;48.630;9.000;2023-08-20T08:53:27;33.40;93.20
5786;DHT22;2919;48.630;9.000;2023-08-20T08:55:52;33.50;91.60
5786;DHT22;2919;48.630;9.000;2023-08-20T08:58:18;33.30;92.10
5786;DHT22;2919;48.630;9.000;2023-08-20T09:00:43;33.60;91.00
5786;DHT22;2919;48.630;9.000;2023-08-20T09:03:09;33.50;90.60
5786;DHT22;2919;48.630;9.000;2023-08-20T09:05:48;33.20;91.20
5786;DHT22;2919;48.630;9.000;2023-08-20T09:10:47;33.20;90.10
5786;DHT22;2919;48.630;9.000;2023-08-20T09:13:15;33.50;86.10
5786;DHT22;2919;48.630;9.000;2023-08-20T09:15:41;33.60;85.00
5786;DHT22;2919;48.630;9.000;2023-08-20T09:18:09;32.50;87.10
5786;DHT22;2919;48.630;9.000;2023-08-20T09:20:38;32.90;89.10
5786;DHT22;2919;48.630;9.000;2023-08-20T09:23:04;33.00;89.20
5786;DHT22;2919;48.630;9.000;2023-08-20T09:25:35;33.10;90.00
5786;DHT22;2919;48.630;9.000;2023-08-20T09:28:04;33.20;90.00
5786;DHT22;2919;48.630;9.000;2023-08-20T09:30:30;33.10;90.00
5786;DHT22;2919;48.630;9.000;2023-08-20T09:33:10;33.40;90.60
5786;DHT22;2919;48.630;9.000;2023-08-20T09:35:37;33.50;88.30
5786;DHT22;2919;48.630;9.000;2023-08-20T09:38:05;33.50;86.40
5786;DHT22;2919;48.630;9.000;2023-08-20T09:40:31;33.50;85.50
5786;DHT22;2919;48.630;9.000;2023-08-20T09:42:57;32.90;89.00
5786;DHT22;2919;48.630;9.000;2023-08-20T09:45:28;32.90;90.70
5786;DHT22;2919;48.630;9.000;2023-08-20T09:47:58;33.20;87.60
5786;DHT22;2919;48.630;9.000;2023-08-20T09:50:26;33.20;87.80
5786;DHT22;2919;48.630;9.000;2023-08-20T09:53:06;33.50;87.50
5786;DHT22;2919;48.630;9.000;2023-08-20T09:55:35;33.50;87.40
5786;DHT22;2919;48.630;9.000;2023-08-20T09:58:04;33.30;89.20
5786;DHT22;2919;48.630;9.000;2023-08-20T10:00:31;32.70;88.90
5786;DHT22;2919;48.630;9.000;2023-08-20T10:02:57;33.00;88.80
5786;DHT22;2919;48.630;9.000;2023-08-20T10:05:24;32.70;91.00
5786;DHT22;2919;48.630;9.000;2023-08-20T10:07:50;31.80;91.10
5786;DHT22;2919;48.630;9.000;2023-08-20T10:10:15;31.50;92.50
5786;DHT22;2919;48.630;9.000;2023-08-20T10:12:43;31.40;92.60
5786;DHT22;2919;48.630;9.000;2023-08-20T10:15:11;31.50;92.10
5786;DHT22;2919;48.630;9.000;2023-08-20T10:17:38;31.10;92.40
5786;DHT22;2919;48.630;9.000;2023-08-20T10:20:04;30.80;93.90
5786;DHT22;2919;48.630;9.000;2023-08-20T10:25:06;31.00;92.00
5786;DHT22;2919;48.630;9.000;2023-08-20T10:27:34;30.90;94.10
5786;DHT22;2919;48.630;9.000;2023-08-20T10:30:00;30.80;93.30
5786;DHT22;2919;48.630;9.000;2023-08-20T10:32:48;30.50;93.50
5786;DHT22;2919;48.630;9.000;2023-08-20T10:35:30;30.40;93.20
5786;DHT22;2919;48.630;9.000;2023-08-20T10:38:16;30.50;93.30
5786;DHT22;2919;48.630;9.000;2023-08-20T10:40:54;30.60;94.90
5786;DHT22;2919;48.630;9.000;2023-08-20T10:43:31;30.80;94.40
5786;DHT22;2919;48.630;9.000;2023-08-20T10:48:33;31.20;94.10
5786;DHT22;2919;48.630;9.000;2023-08-20T10:51:15;31.10;95.50
5786;DHT22;2919;48.630;9.000;2023-08-20T10:53:43;31.20;94.60
5786;DHT22;2919;48.630;9.000;2023-08-20T10:56:10;31.10;95.30
5786;DHT22;2919;48.630;9.000;2023-08-20T10:58:40;31.00;95.50
5786;DHT22;2919;48.630;9.000;2023-08-20T11:01:19;31.30;95.40
5786;DHT22;2919;48.630;9.000;2023-08-20T11:03:47;31.40;95.40
5786;DHT22;2919;48.630;9.000;2023-08-20T11:06:14;31.60;93.90
5786;DHT22;2919;48.630;9.000;2023-08-20T11:08:40;31.60;94.70
5786;DHT22;2919;48.630;9.000;2023-08-20T11:11:07;31.30;94.50
5786;DHT22;2919;48.630;9.000;2023-08-20T11:13:33;31.50;94.50
5786;DHT22;2919;48.630;9.000;2023-08-20T11:16:01;31.60;94.60
5786;DHT22;2919;48.630;9.000;2023-08-20T11:18:27;31.40;95.00
5786;DHT22;2919;48.630;9.000;2023-08-20T11:20:54;31.60;95.50
5786;DHT22;2919;48.630;9.000;2023-08-20T11:23:21;31.70;94.70
5786;DHT22;2919;48.630;9.000;2023-08-20T11:25:47;31.90;94.30
5786;DHT22;2919;48.630;9.000;2023-08-20T11:28:13;31.70;93.50
5786;DHT22;2919;48.630;9.000;2023-08-20T11:30:39;31.50;94.50
5786;DHT22;2919;48.630;9.000;2023-08-20T11:33:04;31.20;95.60
5786;DHT22;2919;48.630;9.000;2023-08-20T11:35:31;31.40;95.10
5786;DHT22;2919;48.630;9.000;2023-08-20T11:37:58;31.60;95.10
5786;DHT22;2919;48.630;9.000;2023-08-20T11:40:24;31.70;96.10
5786;DHT22;2919;48.630;9.000;2023-08-20T11:42:50;31.80;94.30
5786;DHT22;2919;48.630;9.000;2023-08-20T11:45:16;32.10;94.90
5786;DHT22;2919;48.630;9.000;2023-08-20T11:47:42;32.20;94.00
5786;DHT22;2919;48.630;9.000;2023-08-20T11:50:09;32.40;93.80
5786;DHT22;2919;48.630;9.000;2023-08-20T11:52:36;32.30;93.80
5786;DHT22;2919;48.630;9.000;2023-08-20T11:55:02;32.20;93.60
5786;DHT22;2919;48.630;9.000;2023-08-20T11:57:29;32.20;94.50
5786;DHT22;2919;48.630;9.000;2023-08-20T11:59:56;32.30;94.80
5786;DHT22;2919;48.630;9.000;2023-08-20T12:02:26;32.50;93.20
5786;DHT22;2919;48.630;9.000;2023-08-20T12:04:56;32.70;93.00
5786;DHT22;2919;48.630;9.000;2023-08-20T12:07:25;32.50;93.10
5786;DHT22;2919;48.630;9.000;2023-08-20T12:09:55;32.50;93.00
5786;DHT22;2919;48.630;9.000;2023-08-20T12:12:22;32.60;92.80
5786;DHT22;2919;48.630;9.000;2023-08-20T12:14:48;32.60;93.30
5786;DHT22;2919;48.630;9.000;2023-08-20T12:17:18;32.30;93.00
5786;DHT22;2919;48.630;9.000;2023-08-20T12:19:44;32.40;93.10
5786;DHT22;2919;48.630;9.000;2023-08-20T12:22:10;32.40;93.10
5786;DHT22;2919;48.630;9.000;2023-08-20T12:24:36;32.50;92.70
5786;DHT22;2919;48.630;9.000;2023-08-20T12:27:01;32.70;92.20
5786;DHT22;2919;48.630;9.000;2023-08-20T12:29:28;32.70;91.50
5786;DHT22;2919;48.630;9.000;2023-08-20T12:31:54;32.60;92.40
5786;DHT22;2919;48.630;9.000;2023-08-20T12:34:19;32.40;92.40
5786;DHT22;2919;48.630;9.000;2023-08-20T12:36:47;32.40;92.50
5786;DHT22;2919;48.630;9.000;2023-08-20T12:39:12;32.30;92.00
5786;DHT22;2919;48.630;9.000;2023-08-20T12:41:39;32.20;92.20
5786;DHT22;2919;48.630;9.000;2023-08-20T12:44:05;31.60;93.60
5786;DHT22;2919;48.630;9.000;2023-08-20T12:46:31;31.40;94.30
5786;DHT22;2919;48.630;9.000;2023-08-20T12:48:56;31.60;94.00
5786;DHT22;2919;48.630;9.000;2023-08-20T12:51:22;31.60;93.10
5786;DHT22;2919;48.630;9.000;2023-08-20T12:53:48;32.20;92.50
5786;DHT22;2919;48.630;9.000;2023-08-20T12:56:14;32.60;92.90
5786;DHT22;2919;48.630;9.000;2023-08-20T12:58:41;32.80;90.70
5786;DHT22;2919;48.630;9.000;2023-08-20T13:01:06;33.10;90.10
5786;DHT22;2919;48.630;9.000;2023-08-20T13:03:32;33.30;90.10
5786;DHT22;2919;48.630;9.000;2023-08-20T13:05:58;33.40;89.70
5786;DHT22;2919;48.630;9.000;2023-08-20T13:08:25;33.50;89.50
5786;DHT22;2919;48.630;9.000;2023-08-20T13:10:54;33.40;88.40
5786;DHT22;2919;48.630;9.000;2023-08-20T13:13:21;33.10;88.60
5786;DHT22;2919;48.630;9.000;2023-08-20T13:15:48;33.20;88.80
5786;DHT22;2919;48.630;9.000;2023-08-20T13:18:14;33.00;90.30
5786;DHT22;2919;48.630;9.000;2023-08-20T13:20:40;33.10;89.30
5786;DHT22;2919;48.630;9.000;2023-08-20T13:23:07;33.20;89.40
5786;DHT22;2919;48.630;9.000;2023-08-20T13:25:33;33.20;88.40
5786;DHT22;2919;48.630;9.000;2023-08-20T13:27:58;33.30;89.90
5786;DHT22;2919;48.630;9.000;2023-08-20T13:30:25;33.50;88.60
5786;DHT22;2919;48.630;9.000;2023-08-20T13:32:51;33.40;87.80
5786;DHT22;2919;48.630;9.000;2023-08-20T13:35:16;33.30;88.00
5786;DHT22;2919;48.630;9.000;2023-08-20T13:37:42;32.90;88.90
5786;DHT22;2919;48.630;9.000;2023-08-20T13:40:08;32.70;89.30
5786;DHT22;2919;48.630;9.000;2023-08-20T13:42:35;33.00;88.90
5786;DHT22;2919;48.630;9.000;2023-08-20T13:45:01;33.10;88.20
5786;DHT22;2919;48.630;9.000;2023-08-20T13:47:26;33.20;88.50
5786;DHT22;2919;48.630;9.000;2023-08-20T13:49:52;33.10;90.10
5786;DHT22;2919;48.630;9.000;2023-08-20T13:52:17;33.30;89.30
5786;DHT22;2919;48.630;9.000;2023-08-20T13:54:43;33.00;89.80
5786;DHT22;2919;48.630;9.000;2023-08-20T13:57:09;33.10;90.20
5786;DHT22;2919;48.630;9.000;2023-08-20T13:59:35;33.30;88.80
5786;DHT22;2919;48.630;9.000;2023-08-20T14:02:01;33.60;89.10
5786;DHT22;2919;48.630;9.000;2023-08-20T14:04:26;33.70;86.10
5786;DHT22;2919;48.630;9.000;2023-08-20T14:06:52;33.70;86.60
5786;DHT22;2919;48.630;9.000;2023-08-20T14:09:18;33.30;88.60
5786;DHT22;2919;48.630;9.000;2023-08-20T14:11:45;33.10;90.40
5786;DHT22;2919;48.630;9.000;2023-08-20T14:14:10;32.90;88.40
5786;DHT22;2919;48.630;9.000;2023-08-20T14:16:36;32.60;89.50
5786;DHT22;2919;48.630;9.000;2023-08-20T14:19:02;32.50;90.70
5786;DHT22;2919;48.630;9.000;2023-08-20T14:21:27;32.40;90.60
5786;DHT22;2919;48.630;9.000;2023-08-20T14:23:53;32.20;90.50
5786;DHT22;2919;48.630;9.000;2023-08-20T14:26:19;31.80;90.30
5786;DHT22;2919;48.630;9.000;2023-08-20T14:28:44;31.60;91.20
5786;DHT22;2919;48.630;9.000;2023-08-20T14:31:10;31.70;90.70
5786;DHT22;2919;48.630;9.000;2023-08-20T14:33:36;31.60;90.80
5786;DHT22;2919;48.630;9.000;2023-08-20T14:36:02;31.40;91.50
5786;DHT22;2919;48.630;9.000;2023-08-20T14:38:30;31.30;91.10
5786;DHT22;2919;48.630;9.000;2023-08-20T14:41:03;31.00;92.20
5786;DHT22;2919;48.630;9.000;2023-08-20T14:43:30;31.00;91.90
5786;DHT22;2919;48.630;9.000;2023-08-20T14:45:56;31.00;90.60
5786;DHT22;2919;48.630;9.000;2023-08-20T14:48:24;31.00;91.40
5786;DHT22;2919;48.630;9.000;2023-08-20T14:50:53;30.90;92.60
5786;DHT22;2919;48.630;9.000;2023-08-20T14:53:18;30.80;92.50
5786;DHT22;2919;48.630;9.000;2023-08-20T14:55:45;30.90;92.60
5786;DHT22;2919;48.630;9.000;2023-08-20T14:58:11;31.10;92.20
5786;DHT22;2919;48.630;9.000;2023-08-20T15:00:36;31.10;91.20
5786;DHT22;2919;48.630;9.000;2023-08-20T15:03:03;31.40;91.80
5786;DHT22;2919;48.630;9.000;2023-08-20T15:05:29;31.80;91.60
5786;DHT22;2919;48.630;9.000;2023-08-20T15:07:54;32.10;89.80
5786;DHT22;2919;48.630;9.000;2023-08-20T15:10:20;32.30;90.00
5786;DHT22;2919;48.630;9.000;2023-08-20T15:12:46;32.10;90.40
5786;DHT22;2919;48.630;9.000;2023-08-20T15:15:11;32.20;90.10
5786;DHT22;2919;48.630;9.000;2023-08-20T15:17:38;32.10;90.20
5786;DHT22;2919;48.630;9.000;2023-08-20T15:20:04;32.20;89.30
5786;DHT22;2919;48.630;9.000;2023-08-20T15:22:36;32.20;88.50
5786;DHT22;2919;48.630;9.000;2023-08-20T15:25:03;32.10;90.20
5786;DHT22;2919;48.630;9.000;2023-08-20T15:27:33;32.20;89.90
5786;DHT22;2919;48.630;9.000;2023-08-20T15:30:00;32.00;90.40
5786;DHT22;2919;48.630;9.000;2023-08-20T15:32:25;31.90;89.30
5786;DHT22;2919;48.630;9.000;2023-08-20T15:34:52;31.70;90.10
5786;DHT22;2919;48.630;9.000;2023-08-20T15:37:18;31.50;90.30
5786;DHT22;2919;48.630;9.000;2023-08-20T15:39:44;31.40;90.80
5786;DHT22;2919;48.630;9.000;2023-08-20T15:42:10;31.30;90.90
5786;DHT22;2919;48.630;9.000;2023-08-20T15:44:35;31.30;90.80
5786;DHT22;2919;48.630;9.000;2023-08-20T15:47:01;31.40;89.70
5786;DHT22;2919;48.630;9.000;2023-08-20T15:49:26;31.30;90.50
5786;DHT22;2919;48.630;9.000;2023-08-20T15:51:55;31.40;90.20
5786;DHT22;2919;48.630;9.000;2023-08-20T15:54:21;31.30;90.60
5786;DHT22;2919;48.630;9.000;2023-08-20T15:56:46;31.40;90.10
5786;DHT22;2919;48.630;9.000;2023-08-20T15:59:12;31.40;90.00
5786;DHT22;2919;48.630;9.000;2023-08-20T16:01:38;31.40;90.00
5786;DHT22;2919;48.630;9.000;2023-08-20T16:04:04;31.40;89.70
5786;DHT22;2919;48.630;9.000;2023-08-20T16:06:29;31.30;91.00
5786;DHT22;2919;48.630;9.000;2023-08-20T16:08:55;31.30;90.10
5786;DHT22;2919;48.630;9.000;2023-08-20T16:11:21;31.30;90.50
5786;DHT22;2919;48.630;9.000;2023-08-20T16:13:46;31.20;90.70